sensor_id;sensor_type;location;lat;lon;timestamp;pressure;altitude;pressure_sealevel;temperature;humidity
68137;BME280;54939;50.826;9.030;2023-03-01T00:00:20;99861.97;;;5.76;58.51
68137;BME280;54939;50.826;9.030;2023-03-01T00:00:50;99862.81;;;5.77;58.74
68137;BME280;54939;50.826;9.030;2023-03-01T00:01:25;99857.44;;;5.78;59.31
68137;BME280;54939;50.826;9.030;2023-03-01T00:01:56;99858.38;;;5.77;58.77
68137;BME280;54939;50.826;9.030;2023-03-01T00:02:26;99856.66;;;5.76;58.53
68137;BME280;54939;50.826;9.030;2023-03-01T00:02:56;99851.38;;;5.76;58.54
68137;BME280;54939;50.826;9.030;2023-03-01T00:03:26;99861.03;;;5.77;58.61
68137;BME280;54939;50.826;9.030;2023-03-01T00:03:57;99861.97;;;5.76;58.72
68137;BME280;54939;50.826;9.030;2023-03-01T00:04:27;99856.56;;;5.78;58.57
68137;BME280;54939;50.826;9.030;2023-03-01T00:04:58;99853.06;;;5.77;58.61
68137;BME280;54939;50.826;9.030;2023-03-01T00:05:28;99855.72;;;5.77;58.47
68137;BME280;54939;50.826;9.030;2023-03-01T00:05:58;99856.56;;;5.78;58.58
68137;BME280;54939;50.826;9.030;2023-03-01T00:06:29;99849.56;;;5.77;58.67
68137;BME280;54939;50.826;9.030;2023-03-01T00:06:59;99860.16;;;5.77;58.72
68137;BME280;54939;50.826;9.030;2023-03-01T00:07:29;99864.53;;;5.78;58.82
68137;BME280;54939;50.826;9.030;2023-03-01T00:08:00;99856.66;;;5.76;58.91
68137;BME280;54939;50.826;9.030;2023-03-01T00:08:30;99862.81;;;5.77;58.73
68137;BME280;54939;50.826;9.030;2023-03-01T00:09:00;99858.38;;;5.77;58.76
68137;BME280;54939;50.826;9.030;2023-03-01T00:09:31;99861.03;;;5.77;58.53
68137;BME280;54939;50.826;9.030;2023-03-01T00:10:01;99863.66;;;5.77;58.79
68137;BME280;54939;50.826;9.030;2023-03-01T00:10:31;99861.03;;;5.77;58.78
68137;BME280;54939;50.826;9.030;2023-03-01T00:11:05;99862.91;;;5.75;58.53
68137;BME280;54939;50.826;9.030;2023-03-01T00:11:37;99867.25;;;5.76;58.60
68137;BME280;54939;50.826;9.030;2023-03-01T00:12:07;99860.25;;;5.75;58.87
68137;BME280;54939;50.826;9.030;2023-03-01T00:12:37;99863.75;;;5.76;58.92
68137;BME280;54939;50.826;9.030;2023-03-01T00:13:07;99862.91;;;5.75;58.62
68137;BME280;54939;50.826;9.030;2023-03-01T00:13:38;99863.75;;;5.76;59.19
68137;BME280;54939;50.826;9.030;2023-03-01T00:14:08;99861.09;;;5.76;58.83
68137;BME280;54939;50.826;9.030;2023-03-01T00:14:38;99871.63;;;5.77;58.66
68137;BME280;54939;50.826;9.030;2023-03-01T00:15:09;99860.16;;;5.77;58.98
68137;BME280;54939;50.826;9.030;2023-03-01T00:15:39;99859.22;;;5.78;58.68
68137;BME280;54939;50.826;9.030;2023-03-01T00:16:11;99868.19;;;5.75;58.77
68137;BME280;54939;50.826;9.030;2023-03-01T00:16:43;99861.97;;;5.76;58.75
68137;BME280;54939;50.826;9.030;2023-03-01T00:17:13;99856.75;;;5.75;58.64
68137;BME280;54939;50.826;9.030;2023-03-01T00:17:44;99865.56;;;5.75;58.61
68137;BME280;54939;50.826;9.030;2023-03-01T00:18:14;99869.16;;;5.74;58.58
68137;BME280;54939;50.826;9.030;2023-03-01T00:18:44;99867.34;;;5.75;58.51
68137;BME280;54939;50.826;9.030;2023-03-01T00:19:16;99864.69;;;5.75;58.45
68137;BME280;54939;50.826;9.030;2023-03-01T00:19:46;99860.38;;;5.74;58.61
68137;BME280;54939;50.826;9.030;2023-03-01T00:20:16;99863.84;;;5.74;59.05
68137;BME280;54939;50.826;9.030;2023-03-01T00:20:50;99856.75;;;5.75;58.69
68137;BME280;54939;50.826;9.030;2023-03-01T00:21:21;99856.66;;;5.76;58.86
68137;BME280;54939;50.826;9.030;2023-03-01T00:21:52;99853.25;;;5.74;58.68
68137;BME280;54939;50.826;9.030;2023-03-01T00:22:22;99853.25;;;5.74;58.74
68137;BME280;54939;50.826;9.030;2023-03-01T00:22:53;99854.09;;;5.75;58.95
68137;BME280;54939;50.826;9.030;2023-03-01T00:23:23;99852.44;;;5.74;58.78
68137;BME280;54939;50.826;9.030;2023-03-01T00:23:53;99851.44;;;5.75;58.81
68137;BME280;54939;50.826;9.030;2023-03-01T00:24:24;99850.59;;;5.74;59.11
68137;BME280;54939;50.826;9.030;2023-03-01T00:24:54;99849.78;;;5.74;58.87
68137;BME280;54939;50.826;9.030;2023-03-01T00:25:24;99858.47;;;5.76;58.54
68137;BME280;54939;50.826;9.030;2023-03-01T00:25:54;99854.94;;;5.75;58.47
68137;BME280;54939;50.826;9.030;2023-03-01T00:26:25;99855.81;;;5.76;58.60
68137;BME280;54939;50.826;9.030;2023-03-01T00:26:56;99853.16;;;5.76;58.54
68137;BME280;54939;50.826;9.030;2023-03-01T00:27:26;99859.41;;;5.75;58.70
68137;BME280;54939;50.826;9.030;2023-03-01T00:27:56;99856.03;;;5.73;58.74
68137;BME280;54939;50.826;9.030;2023-03-01T00:28:26;99860.38;;;5.74;58.49
68137;BME280;54939;50.826;9.030;2023-03-01T00:28:57;99854.09;;;5.75;58.82
68137;BME280;54939;50.826;9.030;2023-03-01T00:29:27;99854.94;;;5.75;58.58
68137;BME280;54939;50.826;9.030;2023-03-01T00:29:58;99852.31;;;5.75;58.82
68137;BME280;54939;50.826;9.030;2023-03-01T00:30:28;99847.94;;;5.74;58.42
68137;BME280;54939;50.826;9.030;2023-03-01T00:31:14;99857.72;;;5.74;58.31
68137;BME280;54939;50.826;9.030;2023-03-01T00:31:45;99854.09;;;5.75;58.52
68137;BME280;54939;50.826;9.030;2023-03-01T00:32:15;99853.25;;;5.74;58.71
68137;BME280;54939;50.826;9.030;2023-03-01T00:32:45;99847.00;;;5.75;58.52
68137;BME280;54939;50.826;9.030;2023-03-01T00:33:15;99855.06;;;5.74;58.95
68137;BME280;54939;50.826;9.030;2023-03-01T00:33:45;99847.13;;;5.74;58.75
68137;BME280;54939;50.826;9.030;2023-03-01T00:34:16;99849.78;;;5.74;58.64
68137;BME280;54939;50.826;9.030;2023-03-01T00:34:46;99857.81;;;5.72;58.62
68137;BME280;54939;50.826;9.030;2023-03-01T00:35:24;99841.06;;;5.72;58.43
68137;BME280;54939;50.826;9.030;2023-03-01T00:35:54;99858.66;;;5.73;58.81
68137;BME280;54939;50.826;9.030;2023-03-01T00:36:25;99856.03;;;5.73;58.49
68137;BME280;54939;50.826;9.030;2023-03-01T00:36:55;99847.22;;;5.72;58.73
68137;BME280;54939;50.826;9.030;2023-03-01T00:37:35;99851.66;;;5.72;58.66
68137;BME280;54939;50.826;9.030;2023-03-01T00:38:05;99845.41;;;5.73;58.78
68137;BME280;54939;50.826;9.030;2023-03-01T00:38:36;99858.66;;;5.73;58.82
68137;BME280;54939;50.826;9.030;2023-03-01T00:39:09;99853.47;;;5.71;58.83
68137;BME280;54939;50.826;9.030;2023-03-01T00:39:39;99852.50;;;5.72;58.57
68137;BME280;54939;50.826;9.030;2023-03-01T00:40:10;99853.47;;;5.71;58.68
68137;BME280;54939;50.826;9.030;2023-03-01T00:40:40;99856.09;;;5.71;58.76
68137;BME280;54939;50.826;9.030;2023-03-01T00:41:12;99857.13;;;5.69;59.02
68137;BME280;54939;50.826;9.030;2023-03-01T00:41:42;99856.09;;;5.71;58.84
68137;BME280;54939;50.826;9.030;2023-03-01T00:42:12;99842.84;;;5.71;59.01
68137;BME280;54939;50.826;9.030;2023-03-01T00:42:43;99843.72;;;5.72;58.95
68137;BME280;54939;50.826;9.030;2023-03-01T00:43:13;99856.09;;;5.71;58.70
68137;BME280;54939;50.826;9.030;2023-03-01T00:43:43;99849.88;;;5.72;58.50
68137;BME280;54939;50.826;9.030;2023-03-01T00:44:14;99853.38;;;5.73;58.81
68137;BME280;54939;50.826;9.030;2023-03-01T00:44:44;99845.50;;;5.71;58.68
68137;BME280;54939;50.826;9.030;2023-03-01T00:45:14;99846.38;;;5.72;58.74
68137;BME280;54939;50.826;9.030;2023-03-01T00:45:45;99844.66;;;5.71;58.43
68137;BME280;54939;50.826;9.030;2023-03-01T00:46:16;99842.84;;;5.71;58.83
68137;BME280;54939;50.826;9.030;2023-03-01T00:46:47;99841.16;;;5.70;58.79
68137;BME280;54939;50.826;9.030;2023-03-01T00:47:17;99840.22;;;5.71;58.66
68137;BME280;54939;50.826;9.030;2023-03-01T00:47:48;99843.72;;;5.72;58.45
68137;BME280;54939;50.826;9.030;2023-03-01T00:48:18;99849.94;;;5.71;58.55
68137;BME280;54939;50.826;9.030;2023-03-01T00:48:48;99843.72;;;5.72;58.73
68137;BME280;54939;50.826;9.030;2023-03-01T00:49:18;99841.91;;;5.72;58.53
68137;BME280;54939;50.826;9.030;2023-03-01T00:49:48;99841.06;;;5.72;58.93
68137;BME280;54939;50.826;9.030;2023-03-01T00:50:19;99849.00;;;5.72;58.56
68137;BME280;54939;50.826;9.030;2023-03-01T00:50:49;99842.78;;;5.73;58.54
68137;BME280;54939;50.826;9.030;2023-03-01T00:51:20;99843.72;;;5.72;58.81
68137;BME280;54939;50.826;9.030;2023-03-01T00:51:51;99840.22;;;5.71;58.66
68137;BME280;54939;50.826;9.030;2023-03-01T00:52:21;99842.00;;;5.71;58.85
68137;BME280;54939;50.826;9.030;2023-03-01T00:52:53;99847.22;;;5.72;58.87
68137;BME280;54939;50.826;9.030;2023-03-01T00:53:23;99842.78;;;5.73;58.62
68137;BME280;54939;50.826;9.030;2023-03-01T00:53:54;99840.22;;;5.71;58.65
68137;BME280;54939;50.826;9.030;2023-03-01T00:54:26;99840.22;;;5.71;58.99
68137;BME280;54939;50.826;9.030;2023-03-01T00:54:56;99843.72;;;5.72;59.08
68137;BME280;54939;50.826;9.030;2023-03-01T00:55:27;99846.38;;;5.72;58.73
68137;BME280;54939;50.826;9.030;2023-03-01T00:55:58;99840.22;;;5.71;58.78
68137;BME280;54939;50.826;9.030;2023-03-01T00:56:28;99849.88;;;5.72;58.96
68137;BME280;54939;50.826;9.030;2023-03-01T00:56:59;99846.38;;;5.72;58.79
68137;BME280;54939;50.826;9.030;2023-03-01T00:57:29;99846.38;;;5.72;58.65
68137;BME280;54939;50.826;9.030;2023-03-01T00:57:59;99856.09;;;5.71;58.74
68137;BME280;54939;50.826;9.030;2023-03-01T00:58:30;99846.38;;;5.72;58.53
68137;BME280;54939;50.826;9.030;2023-03-01T00:59:01;99842.84;;;5.71;58.88
68137;BME280;54939;50.826;9.030;2023-03-01T00:59:31;99839.34;;;5.71;59.02
68137;BME280;54939;50.826;9.030;2023-03-01T01:00:02;99840.22;;;5.71;58.52
68137;BME280;54939;50.826;9.030;2023-03-01T01:00:33;99834.91;;;5.71;58.82
68137;BME280;54939;50.826;9.030;2023-03-01T01:01:14;99837.56;;;5.71;58.96
68137;BME280;54939;50.826;9.030;2023-03-01T01:01:48;99839.34;;;5.71;58.64
68137;BME280;54939;50.826;9.030;2023-03-01T01:02:19;99835.84;;;5.70;58.73
68137;BME280;54939;50.826;9.030;2023-03-01T01:02:49;99832.34;;;5.70;58.73
68137;BME280;54939;50.826;9.030;2023-03-01T01:03:20;99829.69;;;5.70;59.11
68137;BME280;54939;50.826;9.030;2023-03-01T01:03:52;99830.47;;;5.72;58.76
68137;BME280;54939;50.826;9.030;2023-03-01T01:04:22;99827.91;;;5.70;58.73
68137;BME280;54939;50.826;9.030;2023-03-01T01:04:53;99833.13;;;5.72;58.78
68137;BME280;54939;50.826;9.030;2023-03-01T01:05:23;99837.56;;;5.71;58.68
68137;BME280;54939;50.826;9.030;2023-03-01T01:05:53;99830.56;;;5.70;59.16
68137;BME280;54939;50.826;9.030;2023-03-01T01:06:24;99828.75;;;5.71;58.90
68137;BME280;54939;50.826;9.030;2023-03-01T01:06:55;99830.56;;;5.70;58.79
68137;BME280;54939;50.826;9.030;2023-03-01T01:07:25;99835.00;;;5.70;58.86
68137;BME280;54939;50.826;9.030;2023-03-01T01:07:55;99833.19;;;5.70;58.45
68137;BME280;54939;50.826;9.030;2023-03-01T01:08:25;99832.25;;;5.71;58.65
68137;BME280;54939;50.826;9.030;2023-03-01T01:08:56;99829.69;;;5.70;58.80
68137;BME280;54939;50.826;9.030;2023-03-01T01:09:26;99830.56;;;5.70;59.14
68137;BME280;54939;50.826;9.030;2023-03-01T01:09:56;99831.41;;;5.71;58.62
68137;BME280;54939;50.826;9.030;2023-03-01T01:10:27;99835.84;;;5.70;58.75
68137;BME280;54939;50.826;9.030;2023-03-01T01:10:57;99832.34;;;5.70;59.06
68137;BME280;54939;50.826;9.030;2023-03-01T01:11:28;99830.56;;;5.70;58.67
68137;BME280;54939;50.826;9.030;2023-03-01T01:11:58;99826.19;;;5.69;58.97
68137;BME280;54939;50.826;9.030;2023-03-01T01:12:28;99827.91;;;5.70;59.01
68137;BME280;54939;50.826;9.030;2023-03-01T01:12:58;99830.56;;;5.70;58.72
68137;BME280;54939;50.826;9.030;2023-03-01T01:13:28;99832.25;;;5.71;59.04
68137;BME280;54939;50.826;9.030;2023-03-01T01:13:59;99827.81;;;5.72;59.01
68137;BME280;54939;50.826;9.030;2023-03-01T01:14:29;99830.47;;;5.72;59.01
68137;BME280;54939;50.826;9.030;2023-03-01T01:14:59;99827.81;;;5.72;58.72
68137;BME280;54939;50.826;9.030;2023-03-01T01:15:33;99825.25;;;5.70;58.61
68137;BME280;54939;50.826;9.030;2023-03-01T01:16:04;99822.78;;;5.67;58.53
68137;BME280;54939;50.826;9.030;2023-03-01T01:16:34;99825.25;;;5.70;58.73
68137;BME280;54939;50.826;9.030;2023-03-01T01:17:04;99826.97;;;5.71;59.16
68137;BME280;54939;50.826;9.030;2023-03-01T01:17:34;99826.03;;;5.72;58.57
68137;BME280;54939;50.826;9.030;2023-03-01T01:18:05;99830.56;;;5.70;58.39
68137;BME280;54939;50.826;9.030;2023-03-01T01:18:35;99827.13;;;5.68;58.62
68137;BME280;54939;50.826;9.030;2023-03-01T01:19:05;99824.50;;;5.68;58.59
68137;BME280;54939;50.826;9.030;2023-03-01T01:19:36;99827.13;;;5.68;58.79
68137;BME280;54939;50.826;9.030;2023-03-01T01:20:06;99830.63;;;5.69;59.04
68137;BME280;54939;50.826;9.030;2023-03-01T01:20:37;99824.50;;;5.68;58.64
68137;BME280;54939;50.826;9.030;2023-03-01T01:21:09;99828.00;;;5.69;58.57
68137;BME280;54939;50.826;9.030;2023-03-01T01:21:39;99823.63;;;5.68;58.82
68137;BME280;54939;50.826;9.030;2023-03-01T01:22:12;99828.09;;;5.67;58.66
68137;BME280;54939;50.826;9.030;2023-03-01T01:22:43;99822.78;;;5.67;58.95
68137;BME280;54939;50.826;9.030;2023-03-01T01:23:13;99825.34;;;5.69;58.90
68137;BME280;54939;50.826;9.030;2023-03-01T01:23:43;99825.34;;;5.69;58.90
68137;BME280;54939;50.826;9.030;2023-03-01T01:24:14;99818.25;;;5.69;58.77
68137;BME280;54939;50.826;9.030;2023-03-01T01:24:45;99826.28;;;5.68;58.86
68137;BME280;54939;50.826;9.030;2023-03-01T01:25:15;99817.47;;;5.67;58.89
68137;BME280;54939;50.826;9.030;2023-03-01T01:25:46;99819.19;;;5.68;58.62
68137;BME280;54939;50.826;9.030;2023-03-01T01:26:20;99818.25;;;5.69;58.67
68137;BME280;54939;50.826;9.030;2023-03-01T01:26:50;99812.09;;;5.69;58.80
68137;BME280;54939;50.826;9.030;2023-03-01T01:27:20;99820.91;;;5.69;58.81
68137;BME280;54939;50.826;9.030;2023-03-01T01:27:51;99819.19;;;5.68;58.96
68137;BME280;54939;50.826;9.030;2023-03-01T01:28:21;99812.09;;;5.69;58.56
68137;BME280;54939;50.826;9.030;2023-03-01T01:28:51;99813.91;;;5.68;58.85
68137;BME280;54939;50.826;9.030;2023-03-01T01:29:22;99809.53;;;5.67;58.95
68137;BME280;54939;50.826;9.030;2023-03-01T01:29:53;99810.38;;;5.68;58.69
68137;BME280;54939;50.826;9.030;2023-03-01T01:30:23;99816.53;;;5.68;58.92
68137;BME280;54939;50.826;9.030;2023-03-01T01:30:53;99813.91;;;5.68;58.75
68137;BME280;54939;50.826;9.030;2023-03-01T01:31:23;99821.75;;;5.70;59.14
68137;BME280;54939;50.826;9.030;2023-03-01T01:31:54;99814.75;;;5.69;58.93
68137;BME280;54939;50.826;9.030;2023-03-01T01:32:24;99813.03;;;5.68;58.87
68137;BME280;54939;50.826;9.030;2023-03-01T01:32:54;99817.47;;;5.67;58.57
68137;BME280;54939;50.826;9.030;2023-03-01T01:33:24;99814.84;;;5.67;58.59
68137;BME280;54939;50.826;9.030;2023-03-01T01:33:55;99818.34;;;5.68;58.61
68137;BME280;54939;50.826;9.030;2023-03-01T01:34:26;99821.09;;;5.66;59.03
68137;BME280;54939;50.826;9.030;2023-03-01T01:34:56;99822.78;;;5.67;58.92
68137;BME280;54939;50.826;9.030;2023-03-01T01:35:27;99823.63;;;5.68;58.79
68137;BME280;54939;50.826;9.030;2023-03-01T01:35:57;99819.31;;;5.67;58.70
68137;BME280;54939;50.826;9.030;2023-03-01T01:36:28;99828.09;;;5.67;59.04
68137;BME280;54939;50.826;9.030;2023-03-01T01:36:58;99821.09;;;5.66;58.87
68137;BME280;54939;50.826;9.030;2023-03-01T01:37:32;99823.75;;;5.66;58.49
68137;BME280;54939;50.826;9.030;2023-03-01T01:38:03;99821.09;;;5.66;58.69
68137;BME280;54939;50.826;9.030;2023-03-01T01:38:34;99822.78;;;5.67;58.87
68137;BME280;54939;50.826;9.030;2023-03-01T01:39:04;99822.91;;;5.66;58.49
68137;BME280;54939;50.826;9.030;2023-03-01T01:39:34;99815.81;;;5.66;58.44
68137;BME280;54939;50.826;9.030;2023-03-01T01:40:05;99819.31;;;5.67;58.71
68137;BME280;54939;50.826;9.030;2023-03-01T01:40:42;99819.41;;;5.65;58.83
68137;BME280;54939;50.826;9.030;2023-03-01T01:41:12;99813.34;;;5.63;58.60
68137;BME280;54939;50.826;9.030;2023-03-01T01:41:42;99822.91;;;5.66;58.48
68137;BME280;54939;50.826;9.030;2023-03-01T01:42:16;99824.63;;;5.67;58.73
68137;BME280;54939;50.826;9.030;2023-03-01T01:42:47;99821.97;;;5.67;58.64
68137;BME280;54939;50.826;9.030;2023-03-01T01:43:27;99820.25;;;5.66;58.97
68137;BME280;54939;50.826;9.030;2023-03-01T01:44:14;99822.06;;;5.65;58.50
68137;BME280;54939;50.826;9.030;2023-03-01T01:44:46;99825.56;;;5.66;58.86
68137;BME280;54939;50.826;9.030;2023-03-01T01:45:56;99814.97;;;5.66;58.95
68137;BME280;54939;50.826;9.030;2023-03-01T01:46:30;99820.25;;;5.66;58.58
68137;BME280;54939;50.826;9.030;2023-03-01T01:47:34;99815.91;;;5.65;58.54
68137;BME280;54939;50.826;9.030;2023-03-01T01:48:05;99819.41;;;5.65;59.00
68137;BME280;54939;50.826;9.030;2023-03-01T01:48:40;99819.41;;;5.65;58.56
68137;BME280;54939;50.826;9.030;2023-03-01T01:49:17;99816.75;;;5.65;58.72
68137;BME280;54939;50.826;9.030;2023-03-01T01:49:50;99820.25;;;5.66;59.04
68137;BME280;54939;50.826;9.030;2023-03-01T01:50:20;99815.03;;;5.64;58.74
68137;BME280;54939;50.826;9.030;2023-03-01T01:50:55;99811.44;;;5.65;58.85
68137;BME280;54939;50.826;9.030;2023-03-01T01:51:28;99817.59;;;5.66;58.54
68137;BME280;54939;50.826;9.030;2023-03-01T01:52:38;99814.09;;;5.65;58.71
68137;BME280;54939;50.826;9.030;2023-03-01T01:53:12;99814.09;;;5.65;58.72
68137;BME280;54939;50.826;9.030;2023-03-01T01:53:45;99814.09;;;5.65;58.73
68137;BME280;54939;50.826;9.030;2023-03-01T01:54:21;99810.69;;;5.63;58.56
68137;BME280;54939;50.826;9.030;2023-03-01T01:54:53;99813.25;;;5.65;58.63
68137;BME280;54939;50.826;9.030;2023-03-01T01:55:26;99815.97;;;5.63;58.29
68137;BME280;54939;50.826;9.030;2023-03-01T01:55:58;99815.97;;;5.63;58.46
68137;BME280;54939;50.826;9.030;2023-03-01T01:56:30;99808.97;;;5.62;58.81
68137;BME280;54939;50.826;9.030;2023-03-01T01:57:03;99808.97;;;5.62;58.67
68137;BME280;54939;50.826;9.030;2023-03-01T01:57:39;99810.13;;;5.58;58.81
68137;BME280;54939;50.826;9.030;2023-03-01T01:58:11;99807.28;;;5.61;58.39
68137;BME280;54939;50.826;9.030;2023-03-01T01:58:43;99814.28;;;5.62;58.85
68137;BME280;54939;50.826;9.030;2023-03-01T01:59:14;99805.38;;;5.63;58.82
68137;BME280;54939;50.826;9.030;2023-03-01T01:59:45;99808.03;;;5.63;58.46
68137;BME280;54939;50.826;9.030;2023-03-01T02:00:19;99802.75;;;5.63;58.82
68137;BME280;54939;50.826;9.030;2023-03-01T02:00:50;99804.53;;;5.63;58.45
68137;BME280;54939;50.826;9.030;2023-03-01T02:01:20;99802.84;;;5.62;58.99
68137;BME280;54939;50.826;9.030;2023-03-01T02:01:51;99801.03;;;5.62;58.59
68137;BME280;54939;50.826;9.030;2023-03-01T02:02:22;99800.19;;;5.62;58.61
68137;BME280;54939;50.826;9.030;2023-03-01T02:03:02;99795.72;;;5.62;58.79
68137;BME280;54939;50.826;9.030;2023-03-01T02:03:33;99798.38;;;5.62;58.48
68137;BME280;54939;50.826;9.030;2023-03-01T02:04:07;99795.81;;;5.61;58.85
68137;BME280;54939;50.826;9.030;2023-03-01T02:04:37;99804.63;;;5.61;58.72
68137;BME280;54939;50.826;9.030;2023-03-01T02:05:28;99798.47;;;5.61;58.75
68137;BME280;54939;50.826;9.030;2023-03-01T02:06:53;99801.97;;;5.61;58.57
68137;BME280;54939;50.826;9.030;2023-03-01T02:07:25;99801.13;;;5.61;58.50
68137;BME280;54939;50.826;9.030;2023-03-01T02:07:56;99804.63;;;5.61;58.61
68137;BME280;54939;50.826;9.030;2023-03-01T02:08:27;99795.81;;;5.61;58.51
68137;BME280;54939;50.826;9.030;2023-03-01T02:09:02;99802.84;;;5.62;58.52
68137;BME280;54939;50.826;9.030;2023-03-01T02:09:32;99802.09;;;5.60;58.43
68137;BME280;54939;50.826;9.030;2023-03-01T02:10:03;99795.94;;;5.59;58.84
68137;BME280;54939;50.826;9.030;2023-03-01T02:10:33;99800.28;;;5.60;58.44
68137;BME280;54939;50.826;9.030;2023-03-01T02:11:04;99794.97;;;5.60;58.33
68137;BME280;54939;50.826;9.030;2023-03-01T02:11:35;99801.97;;;5.61;58.35
68137;BME280;54939;50.826;9.030;2023-03-01T02:12:07;99798.38;;;5.62;58.80
68137;BME280;54939;50.826;9.030;2023-03-01T02:12:37;99795.72;;;5.62;58.62
68137;BME280;54939;50.826;9.030;2023-03-01T02:13:08;99792.16;;;5.63;58.72
68137;BME280;54939;50.826;9.030;2023-03-01T02:13:39;99801.03;;;5.62;58.39
68137;BME280;54939;50.826;9.030;2023-03-01T02:14:09;99797.53;;;5.62;58.52
68137;BME280;54939;50.826;9.030;2023-03-01T02:14:40;99795.81;;;5.61;58.92
68137;BME280;54939;50.826;9.030;2023-03-01T02:15:10;99794.97;;;5.60;58.75
68137;BME280;54939;50.826;9.030;2023-03-01T02:15:40;99794.97;;;5.60;58.74
68137;BME280;54939;50.826;9.030;2023-03-01T02:16:12;99794.97;;;5.60;58.66
68137;BME280;54939;50.826;9.030;2023-03-01T02:16:42;99799.31;;;5.61;58.80
68137;BME280;54939;50.826;9.030;2023-03-01T02:17:14;99790.53;;;5.61;58.79
68137;BME280;54939;50.826;9.030;2023-03-01T02:17:44;99795.81;;;5.61;58.75
68137;BME280;54939;50.826;9.030;2023-03-01T02:18:16;99791.50;;;5.60;58.79
68137;BME280;54939;50.826;9.030;2023-03-01T02:18:48;99791.38;;;5.61;58.66
68137;BME280;54939;50.826;9.030;2023-03-01T02:19:26;99787.03;;;5.60;58.61
68137;BME280;54939;50.826;9.030;2023-03-01T02:20:04;99786.22;;;5.60;58.81
68137;BME280;54939;50.826;9.030;2023-03-01T02:21:31;99788.84;;;5.60;58.70
68137;BME280;54939;50.826;9.030;2023-03-01T02:22:38;99790.53;;;5.61;58.57
68137;BME280;54939;50.826;9.030;2023-03-01T02:23:02;99786.09;;;5.61;59.01
68137;BME280;54939;50.826;9.030;2023-03-01T02:23:32;99789.66;;;5.60;58.65
68137;BME280;54939;50.826;9.030;2023-03-01T02:24:06;99793.19;;;5.61;59.15
68137;BME280;54939;50.826;9.030;2023-03-01T02:24:51;99787.03;;;5.60;58.58
68137;BME280;54939;50.826;9.030;2023-03-01T02:25:31;99786.22;;;5.60;58.45
68137;BME280;54939;50.826;9.030;2023-03-01T02:26:39;99794.16;;;5.60;58.70
68137;BME280;54939;50.826;9.030;2023-03-01T02:27:11;99782.59;;;5.61;58.66
68137;BME280;54939;50.826;9.030;2023-03-01T02:28:47;99786.22;;;5.60;58.93
68137;BME280;54939;50.826;9.030;2023-03-01T02:29:17;99780.06;;;5.59;58.94
68137;BME280;54939;50.826;9.030;2023-03-01T02:29:48;99783.56;;;5.60;58.98
68137;BME280;54939;50.826;9.030;2023-03-01T02:30:19;99776.56;;;5.59;58.71
68137;BME280;54939;50.826;9.030;2023-03-01T02:30:50;99778.25;;;5.60;58.77
68137;BME280;54939;50.826;9.030;2023-03-01T02:31:39;99779.06;;;5.60;58.85
68137;BME280;54939;50.826;9.030;2023-03-01T02:32:13;99775.59;;;5.60;58.80
68137;BME280;54939;50.826;9.030;2023-03-01T02:32:44;99769.47;;;5.59;58.87
68137;BME280;54939;50.826;9.030;2023-03-01T02:33:15;99772.97;;;5.60;58.40
68137;BME280;54939;50.826;9.030;2023-03-01T02:33:45;99777.41;;;5.59;58.38
68137;BME280;54939;50.826;9.030;2023-03-01T02:34:19;99773.06;;;5.58;58.82
68137;BME280;54939;50.826;9.030;2023-03-01T02:34:51;99776.56;;;5.59;58.79
68137;BME280;54939;50.826;9.030;2023-03-01T02:35:22;99774.84;;;5.58;59.07
68137;BME280;54939;50.826;9.030;2023-03-01T02:35:53;99775.69;;;5.58;58.81
68137;BME280;54939;50.826;9.030;2023-03-01T02:36:26;99780.06;;;5.59;58.89
68137;BME280;54939;50.826;9.030;2023-03-01T02:37:29;99777.28;;;5.61;58.64
68137;BME280;54939;50.826;9.030;2023-03-01T02:37:59;99764.16;;;5.59;58.62
68137;BME280;54939;50.826;9.030;2023-03-01T02:38:31;99779.94;;;5.61;58.58
68137;BME280;54939;50.826;9.030;2023-03-01T02:39:03;99778.25;;;5.60;58.82
68137;BME280;54939;50.826;9.030;2023-03-01T02:39:36;99775.59;;;5.60;58.64
68137;BME280;54939;50.826;9.030;2023-03-01T02:40:13;99784.38;;;5.60;58.95
68137;BME280;54939;50.826;9.030;2023-03-01T02:40:45;99780.06;;;5.59;59.02
68137;BME280;54939;50.826;9.030;2023-03-01T02:41:16;99773.91;;;5.59;58.58
68137;BME280;54939;50.826;9.030;2023-03-01T02:41:48;99773.06;;;5.58;58.87
68137;BME280;54939;50.826;9.030;2023-03-01T02:42:21;99776.56;;;5.59;58.78
68137;BME280;54939;50.826;9.030;2023-03-01T02:42:53;99772.97;;;5.60;58.57
68137;BME280;54939;50.826;9.030;2023-03-01T02:43:26;99773.78;;;5.60;58.55
68137;BME280;54939;50.826;9.030;2023-03-01T02:43:58;99772.97;;;5.60;58.78
68137;BME280;54939;50.826;9.030;2023-03-01T02:44:29;99772.09;;;5.59;58.77
68137;BME280;54939;50.826;9.030;2023-03-01T02:44:59;99778.25;;;5.60;58.61
68137;BME280;54939;50.826;9.030;2023-03-01T02:45:29;99767.66;;;5.60;58.56
68137;BME280;54939;50.826;9.030;2023-03-01T02:46:03;99769.25;;;5.62;58.88
68137;BME280;54939;50.826;9.030;2023-03-01T02:46:34;99770.19;;;5.61;58.73
68137;BME280;54939;50.826;9.030;2023-03-01T02:47:12;99772.00;;;5.61;58.87
68137;BME280;54939;50.826;9.030;2023-03-01T02:47:42;99771.13;;;5.60;58.87
68137;BME280;54939;50.826;9.030;2023-03-01T02:48:12;99766.81;;;5.59;58.98
68137;BME280;54939;50.826;9.030;2023-03-01T02:48:46;99767.66;;;5.60;58.73
68137;BME280;54939;50.826;9.030;2023-03-01T02:49:21;99767.66;;;5.60;58.70
68137;BME280;54939;50.826;9.030;2023-03-01T02:49:52;99772.19;;;5.58;58.82
68137;BME280;54939;50.826;9.030;2023-03-01T02:50:57;99764.25;;;5.58;58.92
68137;BME280;54939;50.826;9.030;2023-03-01T02:52:45;99769.53;;;5.58;58.98
68137;BME280;54939;50.826;9.030;2023-03-01T02:53:19;99768.69;;;5.57;58.66
68137;BME280;54939;50.826;9.030;2023-03-01T02:53:59;99772.19;;;5.58;58.68
68137;BME280;54939;50.826;9.030;2023-03-01T02:54:41;99766.13;;;5.55;58.93
68137;BME280;54939;50.826;9.030;2023-03-01T02:55:15;99775.69;;;5.58;58.68
68137;BME280;54939;50.826;9.030;2023-03-01T02:55:46;99767.75;;;5.58;58.87
68137;BME280;54939;50.826;9.030;2023-03-01T02:56:16;99765.19;;;5.57;58.53
68137;BME280;54939;50.826;9.030;2023-03-01T02:56:47;99769.34;;;5.61;58.88
68137;BME280;54939;50.826;9.030;2023-03-01T02:57:20;99768.47;;;5.60;58.48
68137;BME280;54939;50.826;9.030;2023-03-01T02:57:51;99767.53;;;5.61;58.70